Flight Track Log - Related Links

Times and Time Zones

All times are in EST time to prevent confusion due to time zone crossing. See the VP-BLX flight status page for this flight to view local times or setup timezone preferences in your user account.

Time Position Orientation Groundspeed Altitude Reporting Facility
EST Latitude Longitude Course Direction KTS MPH feet Rate Location/Type
Fri 09:45:00 PM 56.0844 37.0783 281° West  Level Estimated
Fri 09:46:00 PM 56.1279 36.8935 286° West  Level Estimated
Fri 09:47:00 PM 56.1439 36.6947 278° West  Level FlightAware Approximate
Fri 09:48:00 PM 56.1595 36.4958 278° West  Level FlightAware Approximate
Fri 09:49:00 PM 56.2021 36.3100 287° West  Level Estimated
Fri 09:50:00 PM 56.2445 36.1237 284° West  Level Estimated
Fri 09:51:00 PM 56.2576 35.9237 277° West  Level FlightAware Approximate
Fri 09:52:00 PM 56.2994 35.7368 287° West  Level Estimated
Fri 09:53:00 PM 56.3160 35.5373 279° West  Level FlightAware Approximate
Fri 09:54:00 PM 56.3573 35.3497 285° West  Level Estimated
Fri 09:55:00 PM 56.3746 35.1501 279° West  Level FlightAware Approximate
Fri 09:56:00 PM 56.3917 34.9504 279° West  Level FlightAware Approximate
Fri 09:57:00 PM 56.4320 34.7617 285° West  Level Estimated
Fri 09:58:00 PM 56.4491 34.5617 279° West  Level FlightAware Approximate
Fri 09:59:00 PM 56.4889 34.3724 285° West  Level Estimated
Fri 10:00:00 PM 56.5284 34.1826 283° West  Level Estimated
Fri 10:01:00 PM 56.5369 33.9803 274° West  Level FlightAware Approximate
Fri 10:02:00 PM 56.5789 33.7743 280° West  Level Estimated
Fri 10:03:00 PM 56.6206 33.5678 283° West  Level Estimated
Fri 10:04:00 PM 56.6475 33.3531 283° West  Level FlightAware Approximate
Fri 10:05:00 PM 56.6740 33.1382 283° West  Level FlightAware Approximate
Fri 10:06:00 PM 56.7001 32.9229 283° West  Level FlightAware Approximate
Fri 10:07:00 PM 56.7258 32.7073 282° West  Level FlightAware Approximate
Fri 10:08:00 PM 56.7512 32.4915 282° West  Level FlightAware Approximate
Fri 10:09:00 PM 56.7762 32.2753 282° West  Level FlightAware Approximate
Fri 10:10:00 PM 56.8008 32.0589 282° West  Level FlightAware Approximate
Fri 10:11:00 PM 56.8251 31.8422 282° West  Level FlightAware Approximate
Fri 10:12:00 PM 56.8489 31.6252 281° West  Level FlightAware Approximate
Fri 10:13:00 PM 56.8724 31.4079 281° West  Level FlightAware Approximate
Fri 10:14:00 PM 56.8955 31.1904 281° West  Level FlightAware Approximate
Fri 10:15:00 PM 56.9183 30.9726 281° West  Level FlightAware Approximate
Fri 10:16:00 PM 56.9406 30.7545 281° West  Level FlightAware Approximate
Fri 10:17:00 PM 56.9626 30.5362 281° West  Level FlightAware Approximate
Fri 10:18:00 PM 56.9842 30.3176 280° West  Level FlightAware Approximate
Fri 10:19:00 PM 57.0054 30.0987 280° West  Level FlightAware Approximate
Fri 10:20:00 PM 57.0263 29.8796 280° West  Level FlightAware Approximate
Fri 10:21:00 PM 57.0467 29.6603 280° West  Level FlightAware Approximate
Fri 10:22:00 PM 57.0668 29.4407 280° West  Level FlightAware Approximate
Fri 10:23:00 PM 57.0865 29.2209 279° West  Level FlightAware Approximate
Fri 10:24:00 PM 57.1058 29.0009 279° West  Level FlightAware Approximate
Fri 10:25:00 PM 57.1247 28.7806 279° West  Level FlightAware Approximate
Fri 10:26:00 PM 57.1432 28.5602 279° West  Level FlightAware Approximate
Fri 10:27:00 PM 57.1614 28.3395 279° West  Level FlightAware Approximate
Fri 10:28:00 PM 57.1791 28.1185 279° West  Level FlightAware Approximate
Fri 10:29:00 PM 57.1965 27.8974 278° West  Level FlightAware Approximate
Fri 10:30:00 PM 57.2134 27.6761 278° West  Level FlightAware Approximate
Fri 10:31:00 PM 57.2300 27.4545 278° West  Level FlightAware Approximate
Fri 10:32:00 PM 57.2462 27.2328 278° West  Level FlightAware Approximate
Fri 10:33:00 PM 57.2620 27.0109 278° West  Level FlightAware Approximate
Fri 10:34:00 PM 57.2774 26.7888 277° West  Level FlightAware Approximate
Fri 10:35:00 PM 57.2924 26.5665 277° West  Level FlightAware Approximate
Fri 10:36:00 PM 57.3071 26.3440 277° West  Level FlightAware Approximate
Fri 10:37:00 PM 57.3213 26.1213 277° West  Level FlightAware Approximate
Fri 10:38:00 PM 57.3351 25.8985 277° West  Level FlightAware Approximate
Fri 10:39:00 PM 57.3486 25.6755 276° West  Level FlightAware Approximate
Fri 10:40:00 PM 57.3616 25.4524 276° West  Level FlightAware Approximate
Fri 10:41:00 PM 57.3743 25.2291 276° West  Level FlightAware Approximate
Fri 10:42:00 PM 57.3866 25.0056 276° West  Level FlightAware Approximate
Fri 10:43:00 PM 57.3984 24.7820 276° West  Level FlightAware Approximate
Fri 10:44:00 PM 57.4099 24.5583 276° West  Level FlightAware Approximate
Fri 10:45:00 PM 57.4210 24.3344 275° West  Level FlightAware Approximate
Fri 10:46:00 PM 57.4316 24.1104 275° West  Level FlightAware Approximate
Fri 10:47:00 PM 57.4419 23.8862 275° West  Level FlightAware Approximate
Fri 10:48:00 PM 57.4518 23.6620 275° West  Level FlightAware Approximate
Fri 10:49:00 PM 57.4613 23.4376 275° West  Level FlightAware Approximate
Fri 10:50:00 PM 57.4704 23.2131 274° West  Level FlightAware Approximate
Fri 10:50:53 PM 56.9234 24.0515 274° West 457 526 34,000  Level FlightAware ADS-B
Fri 10:51:00 PM 57.4790 22.9885 274° West  Level FlightAware Approximate
Fri 10:52:01 PM 56.9342 23.7859 274° West 456 525 34,000  Level FlightAware ADS-B (EPSY / SZY)
Fri 10:52:31 PM 56.9353 23.7556 274° West 456 525 34,000  Level FlightAware ADS-B
Fri 10:53:26 PM 56.9467 23.4577 274° West 456 525 34,000  Level FlightAware ADS-B (EPSY / SZY)
Fri 10:53:56 PM 56.9507 23.3463 274° West 455 524 34,000  Level FlightAware ADS-B (EPSY / SZY)
Fri 10:54:37 PM 56.9563 23.1869 274° West 455 524 34,000  Level FlightAware ADS-B (EPSY / SZY)
Fri 10:55:13 PM 56.9594 23.0971 274° West 455 524 34,000  Level FlightAware ADS-B (EPSY / SZY)
Fri 10:55:48 PM 56.9655 22.9138 274° West 456 525 34,000  Level FlightAware ADS-B (EPSY / SZY)
Fri 10:56:37 PM 56.9714 22.7255 273° West 455 524 34,000  Level FlightAware ADS-B (EPSY / SZY)
Fri 10:57:47 PM 56.9796 22.4531 273° West 457 526 34,000  Level FlightAware ADS-B
Fri 10:59:59 PM 56.9796 22.4531 281° West 457 526 34,000  Level FlightAware ADS-B
Fri 11:00:00 PM 57.0300 21.9690 281° West  Level Estimated
Fri 11:01:00 PM 57.0522 21.7502 281° West  Level Estimated
Fri 11:02:00 PM 57.0256 22.0128 281° West  Level Estimated
Fri 11:03:00 PM 57.0478 21.7940 281° West  Level Estimated
Fri 11:04:00 PM 57.0696 21.5750 280° West  Level Estimated
Fri 11:05:00 PM 57.0911 21.3557 280° West  Level Estimated
Fri 11:06:00 PM 57.1121 21.1362 280° West  Level Estimated
Fri 11:07:00 PM 57.1328 20.9165 280° West  Level Estimated
Fri 11:08:00 PM 57.1531 20.6964 280° West  Level Estimated
Fri 11:09:00 PM 57.1730 20.4762 280° West  Level Estimated
Fri 11:10:00 PM 57.1926 20.2557 279° West  Level Estimated
Fri 11:11:00 PM 57.2117 20.0350 279° West  Level Estimated
Fri 11:12:00 PM 57.2305 19.8141 279° West  Level Estimated
Fri 11:13:00 PM 57.2489 19.5929 279° West  Level Estimated
Fri 11:14:00 PM 57.2668 19.3715 279° West  Level Estimated
Fri 11:15:00 PM 57.2844 19.1499 278° West  Level Estimated
Fri 11:16:00 PM 57.3016 18.9281 278° West  Level Estimated
Fri 11:17:00 PM 57.3184 18.7061 278° West  Level Estimated
Fri 11:17:36 PM 57.0269 17.8528 278° West 466 536 34,000  Level FlightAware ADS-B
Fri 11:18:06 PM 57.0259 17.7434 269° West 466 536 34,000  Level FlightAware ADS-B
Fri 11:18:37 PM 57.0246 17.6104 269° West 467 537 34,000  Level FlightAware ADS-B
Fri 11:19:17 PM 57.0230 17.4541 269° West 469 540 34,000  Level FlightAware ADS-B
Fri 11:19:47 PM 57.0216 17.3340 269° West 469 540 34,000  Level FlightAware ADS-B
Fri 11:20:27 PM 57.0197 17.1817 269° West 468 539 34,000  Level FlightAware ADS-B
Fri 11:20:57 PM 57.0179 17.0588 269° West 467 537 34,000  Level FlightAware ADS-B
Fri 11:21:37 PM 57.0156 16.9004 269° West 467 537 34,000  Level FlightAware ADS-B
Fri 11:22:07 PM 57.0136 16.7798 268° West 467 537 34,000  Level FlightAware ADS-B
Fri 11:22:47 PM 57.0109 16.6258 268° West 467 537 34,000  Level FlightAware ADS-B
Fri 11:23:17 PM 57.0088 16.5055 268° West 466 536 34,000  Level FlightAware ADS-B
Fri 11:23:56 PM 57.0057 16.3499 268° West 466 536 34,000  Level FlightAware ADS-B
Fri 11:24:27 PM 57.0034 16.2354 268° West 465 535 34,000  Level FlightAware ADS-B
Fri 11:25:06 PM 56.9998 16.0731 268° West 464 534 34,000  Level FlightAware ADS-B
Fri 11:25:37 PM 56.9972 15.9569 268° West 463 533 34,000  Level FlightAware ADS-B
Fri 11:26:16 PM 56.9934 15.8017 268° West 462 532 34,000  Level FlightAware ADS-B
Fri 11:26:47 PM 56.9905 15.6835 267° West 462 532 34,000  Level FlightAware ADS-B
Fri 11:27:26 PM 56.9865 15.5273 267° West 461 531 34,000  Level FlightAware ADS-B
Fri 11:27:57 PM 56.9832 15.4097 267° West 461 531 34,000  Level FlightAware ADS-B
Fri 11:28:27 PM 56.9798 15.2912 267° West 460 529 34,000  Level FlightAware ADS-B
Fri 11:28:57 PM 56.9766 15.1787 267° West 461 531 34,000  Level FlightAware ADS-B
Fri 11:29:27 PM 56.9730 15.0610 267° West 461 531 34,000  Level FlightAware ADS-B
Fri 11:30:07 PM 56.9682 14.9043 267° West 461 531 34,000  Level FlightAware ADS-B
Fri 11:30:37 PM 56.9644 14.7875 267° West 460 529 34,000  Level FlightAware ADS-B
Fri 11:31:17 PM 56.9594 14.6340 267° West 459 528 34,000  Level FlightAware ADS-B
Fri 11:31:47 PM 56.9553 14.5161 266° West 459 528 34,000  Level FlightAware ADS-B
Fri 11:32:26 PM 56.9499 14.3646 266° West 458 527 34,000  Level FlightAware ADS-B
Fri 11:32:57 PM 56.9456 14.2461 266° West 457 526 34,000  Level FlightAware ADS-B
Fri 11:33:36 PM 56.9399 14.0960 266° West 456 525 34,000  Level FlightAware ADS-B
Fri 11:34:07 PM 56.9353 13.9765 266° West 456 525 34,000  Level FlightAware ADS-B
Fri 11:34:46 PM 56.9294 13.8274 266° West 456 525 34,000  Level FlightAware ADS-B
Fri 11:35:17 PM 56.9247 13.7121 266° West 455 524 34,000  Level FlightAware ADS-B
Fri 11:35:57 PM 56.9182 13.5585 266° West 455 524 34,000  Level FlightAware ADS-B
Fri 11:36:27 PM 56.9133 13.4444 266° West 454 522 34,000  Level FlightAware ADS-B
Fri 11:37:06 PM 56.9065 13.2896 265° West 455 524 34,000  Level FlightAware ADS-B
Fri 11:37:37 PM 56.9013 13.1741 265° West 454 522 34,000  Level FlightAware ADS-B
Fri 11:38:07 PM 56.8959 13.0578 265° West 454 522 34,000  Level FlightAware ADS-B
Fri 11:38:38 PM 56.8905 12.9432 265° West 455 524 34,000  Level FlightAware ADS-B
Fri 11:39:08 PM 56.8848 12.8259 265° West 455 524 34,000  Level FlightAware ADS-B
Fri 11:39:48 PM 56.8777 12.6806 265° West 455 524 34,000  Level FlightAware ADS-B
Fri 11:40:28 PM 56.8764 12.5253 269° West 453 521 34,000  Level FlightAware ADS-B
Fri 11:40:58 PM 56.8769 12.4087 270° West 454 522 34,000  Level FlightAware ADS-B
Fri 11:41:28 PM 56.8764 12.2927 270° West 455 524 34,000  Level FlightAware ADS-B
Fri 11:42:07 PM 56.8754 12.1424 269° West 455 524 34,000  Level FlightAware ADS-B
Fri 11:42:38 PM 56.8743 12.0232 269° West 454 522 34,000  Level FlightAware ADS-B
Fri 11:43:18 PM 56.8729 11.8789 269° West 453 521 34,000  Level FlightAware ADS-B
Fri 11:43:48 PM 56.8715 11.7561 269° West 453 521 34,000  Level FlightAware ADS-B
Fri 11:44:28 PM 56.8696 11.6049 269° West 452 520 34,000  Level FlightAware ADS-B
Fri 11:44:58 PM 56.8680 11.4911 269° West 453 521 34,000  Level FlightAware ADS-B
Fri 11:45:37 PM 56.8659 11.3397 269° West 453 521 34,000  Level FlightAware ADS-B
Fri 11:46:08 PM 56.8640 11.2284 268° West 452 520 34,000  Level FlightAware ADS-B
Fri 11:46:47 PM 56.8615 11.0758 268° West 452 520 34,000  Level FlightAware ADS-B
Fri 11:47:18 PM 56.8594 10.9574 268° West 451 519 34,000  Level FlightAware ADS-B
Fri 11:47:56 PM 56.8567 10.8111 268° West 451 519 34,000  Level FlightAware ADS-B
Fri 11:48:28 PM 56.8544 10.6936 268° West 451 519 34,000  Level FlightAware ADS-B
Fri 11:48:58 PM 56.8521 10.5808 268° West 452 520 34,000  Level FlightAware ADS-B
Fri 11:49:28 PM 56.8496 10.4654 268° West 453 521 34,000  Level FlightAware ADS-B
Fri 11:49:58 PM 56.8469 10.3501 268° West 452 520 34,000  Level FlightAware ADS-B
Fri 11:50:38 PM 56.8433 10.1976 268° West 451 519 34,000  Level FlightAware ADS-B
Fri 11:51:08 PM 56.8405 10.0829 268° West 451 519 34,000  Level FlightAware ADS-B
Fri 11:51:47 PM 56.8367 9.9360 267° West 450 518 34,000  Level FlightAware ADS-B
Fri 11:52:18 PM 56.8335 9.8174 267° West 450 518 34,000  Level FlightAware ADS-B
Fri 11:53:13 PM 56.8276 9.6092 267° West 451 519 34,000  Level FlightAware ADS-B
Fri 11:53:44 PM 56.8241 9.4923 267° West 451 519 34,000  Level FlightAware ADS-B
Fri 11:56:00 PM 56.8253 8.9907 270° West  Level Estimated
Fri 11:57:00 PM 56.8252 8.7695 270° West  Level Estimated
Fri 11:58:00 PM 56.8246 8.5482 270° West  Level Estimated
Fri 11:59:00 PM 56.8237 8.3269 270° West  Level Estimated
Sat 12:00:00 AM 56.8224 8.1057 269° West  Level Estimated
Sat 12:01:00 AM 56.8207 7.8845 269° West  Level Estimated
Sat 12:02:00 AM 56.8187 7.6633 269° West  Level Estimated
Sat 12:03:00 AM 56.8162 7.4421 269° West  Level Estimated
Sat 12:04:00 AM 56.8133 7.2209 269° West  Level Estimated
Sat 12:05:00 AM 56.8101 6.9998 269° West  Level Estimated
Sat 12:06:00 AM 56.8064 6.7788 268° West  Level Estimated
Sat 12:07:00 AM 56.8024 6.5577 268° West  Level Estimated
Sat 12:08:00 AM 56.7980 6.3368 268° West  Level Estimated
Sat 12:09:00 AM 56.7931 6.1158 268° West  Level Estimated
Sat 12:10:00 AM 56.7879 5.8950 268° West  Level Estimated
Sat 12:11:00 AM 56.7823 5.6742 267° West  Level Estimated
Sat 12:12:00 AM 56.7763 5.4535 267° West  Level Estimated
Sat 12:13:00 AM 56.7700 5.2328 267° West  Level Estimated
Sat 12:14:00 AM 56.7632 5.0122 267° West  Level Estimated
Sat 12:15:00 AM 56.7560 4.7917 267° West  Level Estimated
Sat 12:16:00 AM 56.7485 4.5713 267° West  Level Estimated
Sat 12:16:55 AM 56.5576 4.2728 267° West 458 527 34,000  Level FlightAware UK
Sat 12:17:25 AM 56.5482 4.1644 261° West 458 527 34,000  Level FlightAware UK
Sat 12:18:01 AM 56.5390 4.0293 263° West 456 525 34,000  Level FlightAware UK
Sat 12:18:31 AM 56.5308 3.9170 263° West 456 525 34,000  Level FlightAware UK
Sat 12:19:01 AM 56.5221 3.8058 262° West 456 525 34,000  Level FlightAware UK
Sat 12:19:31 AM 56.5133 3.6943 262° West 454 522 34,000  Level FlightAware UK
Sat 12:20:01 AM 56.5046 3.5825 262° West 456 525 34,000  Level FlightAware UK
Sat 12:20:31 AM 56.4957 3.4705 262° West 458 527 34,000  Level FlightAware UK
Sat 12:21:01 AM 56.4868 3.3582 262° West 458 527 34,000  Level FlightAware UK
Sat 12:21:31 AM 56.4780 3.2459 262° West 458 527 34,000  Level FlightAware UK
Sat 12:22:01 AM 56.4688 3.1337 262° West 456 525 34,000  Level FlightAware UK
Sat 12:22:31 AM 56.4593 3.0217 261° West 456 525 34,000  Level FlightAware UK
Sat 12:23:07 AM 56.4481 2.8882 261° West 456 525 34,000  Level FlightAware UK
Sat 12:23:37 AM 56.4386 2.7762 261° West 456 525 34,000  Level FlightAware UK
Sat 12:24:07 AM 56.4292 2.6642 261° West 456 525 34,000  Level FlightAware UK
Sat 12:24:37 AM 56.4195 2.5520 261° West 456 525 34,000  Level FlightAware UK
Sat 12:25:13 AM 56.4076 2.4173 261° West 456 525 34,000  Level FlightAware UK
Sat 12:25:49 AM 56.3955 2.2821 261° West 456 525 34,000  Level FlightAware UK
Sat 12:26:25 AM 56.3834 2.1480 261° West 458 527 34,000  Level FlightAware UK
Sat 12:26:55 AM 56.3733 2.0356 261° West 456 525 34,000  Level FlightAware UK
Sat 12:27:06 AM 56.3697 1.9944 261° West 455 524 34,000  Level FlightAware ADS-B
Sat 12:28:00 AM 56.3510 1.7932 261° West 454 522 34,000  Level FlightAware ADS-B
Sat 12:28:36 AM 56.3380 1.6571 261° West 456 525 34,000  Level FlightAware UK
Sat 12:28:42 AM 56.3363 1.6374 261° West 453 521 34,000  Level FlightAware ADS-B
Sat 12:29:13 AM 56.3255 1.5239 260° West 453 521 34,000  Level FlightAware ADS-B
Sat 12:29:47 AM 56.3131 1.3953 260° West 453 521 34,000  Level FlightAware ADS-B
Sat 12:30:17 AM 56.3021 1.2826 260° West 456 525 34,000  Level FlightAware ADS-B
Sat 12:30:56 AM 56.2880 1.1395 260° West 456 525 34,000  Level FlightAware ADS-B
Sat 12:31:32 AM 56.2746 1.0049 260° West 458 527 34,000  Level FlightAware ADS-B
Sat 12:32:04 AM 56.2626 0.8853 260° West 459 528 34,000  Level FlightAware ADS-B
Sat 12:32:48 AM 56.2457 0.7193 260° West 456 525 34,000  Level FlightAware UK
Sat 12:33:03 AM 56.2906 1.1650 260° West 459 528 34,000  Level FlightAware ADS-B (EGNT / NCL)
Sat 12:34:00 AM 56.2178 0.4515 260° West 456 525 34,000  Level FlightAware UK
Sat 12:34:36 AM 56.2037 0.3174 259° West 456 525 34,000  Level FlightAware UK
Sat 12:35:12 AM 56.1895 0.1842 259° West 456 525 34,000  Level FlightAware UK
Sat 12:35:16 AM 56.1889 0.1787 259° West 459 528 34,000  Level FlightAware ADS-B (EGNT / NCL)
Sat 12:35:49 AM 56.1746 0.0459 259° West 457 526 34,000  Level FlightAware ADS-B
Sat 12:35:59 AM 56.1703 0.0071 259° West 456 525 34,000  Level FlightAware ADS-B
Sat 12:36:34 AM 56.1589 -0.0974 259° West 458 527 34,000  Level FlightAware ADS-B (EGNT / NCL)
Sat 12:36:46 AM 56.1520 -0.1602 259° West 455 524 34,000  Level FlightAware ADS-B
Sat 12:37:18 AM 56.1383 -0.2846 259° West 458 527 34,000  Level FlightAware UK
Sat 12:37:21 AM 56.1372 -0.2939 259° West 453 521 34,000  Level FlightAware ADS-B
Sat 12:37:51 AM 56.1225 -0.4041 257° West 458 527 34,000  Level FlightAware ADS-B
Sat 12:38:24 AM 56.1017 -0.5236 257° West 456 525 34,000  Level FlightAware UK
Sat 12:38:26 AM 56.1015 -0.5251 257° West 459 528 34,000  Level FlightAware ADS-B (EGNT / NCL)
Sat 12:38:57 AM 56.0821 -0.6395 253° West 458 527 34,000  Level FlightAware ADS-B (EGNT / NCL)
Sat 12:39:30 AM 56.0608 -0.7647 253° West 457 526 34,000  Level FlightAware ADS-B
Sat 12:40:01 AM 56.0413 -0.8766 253° West 458 527 34,000  Level FlightAware ADS-B
Sat 12:40:15 AM 56.0362 -0.9059 253° West 460 529 34,000  Level FlightAware ADS-B (EGNT / NCL)
Sat 12:40:26 AM 56.0257 -0.9661 253° West 458 527 34,000  Level FlightAware ADS-B (EPKK / KRK)
Sat 12:40:30 AM 56.0255 -0.9675 252° West 459 528 34,000  Level FlightAware ADS-B
Sat 12:40:36 AM 56.0196 -1.0015 253° West 456 525 34,000  Level FlightAware ADS-B (EPKK / KRK)
Sat 12:41:06 AM 56.0010 -1.1076 253° West 459 528 34,000  Level FlightAware ADS-B (EGNT / NCL)
Sat 12:41:37 AM 55.9813 -1.2202 253° West 453 521 34,000  Level FlightAware ADS-B (EGNT / NCL)
Sat 12:42:07 AM 55.9630 -1.3236 253° West 447 514 34,000  Level FlightAware ADS-B (EGNT / NCL)
Sat 12:42:37 AM 55.9437 -1.4321 252° West 446 513 34,000  Level FlightAware ADS-B
Sat 12:43:07 AM 55.9249 -1.5377 252° West 446 513 34,000  Level FlightAware ADS-B
Sat 12:43:37 AM 55.9059 -1.6431 252° West 446 513 34,000  Level FlightAware ADS-B
Sat 12:43:51 AM 55.8973 -1.6910 252° West 445 512 34,000  Level FlightAware ADS-B (EPKK / KRK)
Sat 12:44:21 AM 55.8787 -1.7932 252° West 449 517 34,000  Level FlightAware ADS-B (EGNT / NCL)
Sat 12:44:40 AM 55.8663 -1.8619 252° West 449 517 34,000  Level FlightAware ADS-B (EGNT / NCL)
Sat 12:45:00 AM 55.8536 -1.9314 252° West 449 517 34,000  Level FlightAware ADS-B (EGNT / NCL)
Sat 12:45:22 AM 55.8389 -2.0113 252° West 447 514 34,000  Level FlightAware ADS-B (EPKK / KRK)
Sat 12:45:40 AM 55.8278 -2.0718 252° West 449 517 34,000  Level FlightAware ADS-B (EGNT / NCL)
Sat 12:46:00 AM 55.8150 -2.1412 252° West 451 519 34,000  Level FlightAware ADS-B (EGNT / NCL)
Sat 12:46:31 AM 55.7953 -2.2468 252° West 451 519 34,000  Level FlightAware ADS-B (EGNT / NCL)
Sat 12:47:01 AM 55.7752 -2.3550 252° West 451 519 34,000  Level FlightAware ADS-B (EGNT / NCL)
Sat 12:47:32 AM 55.7549 -2.4626 252° West 451 519 34,000  Level FlightAware ADS-B (EGNT / NCL)
Sat 12:48:04 AM 55.7329 -2.5795 252° West 446 513 34,000  Level FlightAware UK
Sat 12:48:06 AM 55.7320 -2.5835 252° West 452 520 34,000  Level FlightAware ADS-B (EGNT / NCL)
Sat 12:48:36 AM 55.7121 -2.6886 251° West 451 519 34,000  Level FlightAware ADS-B
Sat 12:49:06 AM 55.6919 -2.7941 251° West 450 518 34,000  Level FlightAware ADS-B (EPKK / KRK)
Sat 12:49:38 AM 55.6706 -2.9054 251° West 450 518 34,000  Level FlightAware ADS-B
Sat 12:50:12 AM 55.6482 -3.0210 251° West 450 518 34,000  Level FlightAware ADS-B (EPKK / KRK)
Sat 12:50:46 AM 55.6247 -3.1417 251° West 451 519 34,000  Level FlightAware ADS-B
Sat 12:51:19 AM 55.6024 -3.2560 251° West 452 520 34,000  Level FlightAware ADS-B (EPKK / KRK)
Sat 12:51:49 AM 55.5824 -3.3576 251° West 452 520 34,000  Level FlightAware ADS-B (EPKK / KRK)
Sat 12:52:21 AM 55.5603 -3.4688 251° West 453 521 34,000  Level FlightAware ADS-B (EPKK / KRK)
Sat 12:52:51 AM 55.5392 -3.5748 251° West 453 521 34,000  Level FlightAware ADS-B (EPKK / KRK)
Sat 12:53:33 AM 55.5102 -3.7192 251° West 450 518 34,000  Level FlightAware ADS-B (EPKK / KRK)
Sat 12:53:34 AM 55.5092 -3.7242 251° West 446 513 34,000  Level FlightAware UK
Sat 12:54:03 AM 55.4888 -3.8258 251° West 451 519 34,000  Level FlightAware ADS-B (EPKK / KRK)
Sat 12:54:04 AM 55.4883 -3.8284 251° West 446 513 34,000  Level FlightAware UK
Sat 12:54:34 AM 55.4671 -3.9323 251° West 446 513 34,000  Level FlightAware UK
Sat 12:54:46 AM 55.4584 -3.9753 251° West 451 519 34,000  Level FlightAware ADS-B (EPKK / KRK)
Sat 12:55:16 AM 55.4374 -4.0783 250° West 451 519 34,000  Level FlightAware ADS-B (EPKK / KRK)
Sat 12:55:48 AM 55.4150 -4.1876 250° West 451 519 34,000  Level FlightAware ADS-B (EPKK / KRK)
Sat 12:56:20 AM 55.3921 -4.2983 250° West 452 520 34,000  Level FlightAware ADS-B (EPKK / KRK)
Sat 12:56:50 AM 55.3705 -4.4023 250° West 451 519 34,000  Level FlightAware ADS-B (EPKK / KRK)
Sat 12:57:32 AM 55.3340 -4.5472 246° West 457 526 34,000  Level FlightAware ADS-B (EPKK / KRK)
Sat 12:58:13 AM 55.2984 -4.6841 246° West 453 521 34,000  Level FlightAware ADS-B (EPKK / KRK)
Sat 12:58:15 AM 55.2961 -4.6925 246° West 446 513 34,000  Level FlightAware UK
Sat 12:58:51 AM 55.2653 -4.8129 246° West 446 513 34,000  Level FlightAware UK
Sat 12:59:10 AM 55.2496 -4.8741 246° West 453 521 34,000  Level FlightAware ADS-B (EPKK / KRK)
Sat 12:59:40 AM 55.2231 -4.9771 246° West 453 521 34,000  Level FlightAware ADS-B (EPKK / KRK)
Sat 01:00:11 AM 55.1970 -5.0780 246° West 454 522 34,000  Level FlightAware ADS-B (EPKK / KRK)
Sat 01:00:42 AM 55.1696 -5.1831 246° West 454 522 34,000  Level FlightAware ADS-B (EPKK / KRK)
Sat 01:01:16 AM 55.1400 -5.2969 246° West 454 522 34,000  Level FlightAware ADS-B (EPKK / KRK)
Sat 01:01:46 AM 55.1133 -5.3984 245° Southwest 458 527 34,000  Level FlightAware ADS-B (EPKK / KRK)
Sat 01:02:29 AM 55.0758 -5.5405 245° Southwest 458 527 34,000  Level FlightAware ADS-B (EPKK / KRK)
Sat 01:02:59 AM 55.0488 -5.6426 245° Southwest 460 529 34,000  Level FlightAware ADS-B (EPKK / KRK)
Sat 01:03:29 AM 55.0223 -5.7419 245° Southwest 460 529 34,000  Level FlightAware ADS-B (EPKK / KRK)
Sat 01:03:59 AM 54.9951 -5.8434 245° Southwest 461 531 34,000  Level FlightAware ADS-B (EPKK / KRK)
Sat 01:04:30 AM 54.9677 -5.9452 245° Southwest 463 533 34,000  Level FlightAware ADS-B (EPKK / KRK)
Sat 01:05:09 AM 54.9317 -6.0785 245° Southwest 463 533 34,000  Level FlightAware ADS-B (EPKK / KRK)
Sat 01:05:39 AM 54.9043 -6.1793 245° Southwest 448 516 34,000  Level FlightAware UK
Sat 01:05:46 AM 54.8984 -6.2010 245° Southwest 463 533 34,000  Level FlightAware ADS-B (EPKK / KRK)
Sat 01:06:21 AM 54.8791 -6.2717 245° Southwest 464 534 34,000  Level FlightAware ADS-B
Sat 01:06:55 AM 54.8345 -6.4340 245° Southwest 462 532 34,000  Level FlightAware ADS-B (EPKK / KRK)
Sat 01:07:31 AM 54.8015 -6.5537 244° Southwest 466 536 34,000  Level FlightAware ADS-B
Sat 01:07:41 AM 54.7914 -6.5902 244° Southwest 466 536 34,000  Level FlightAware ADS-B
Sat 01:08:15 AM 54.7608 -6.7007 244° Southwest 463 533 34,000  Level FlightAware ADS-B (EPKK / KRK)
Sat 01:08:45 AM 54.7322 -6.8033 244° Southwest 448 516 34,000  Level FlightAware UK
Sat 01:08:45 AM 54.7324 -6.8026 244° Southwest 463 533 34,000  Level FlightAware ADS-B (EPKK / KRK)
Sat 01:09:15 AM 54.7040 -6.9037 244° Southwest 450 518 34,000  Level FlightAware UK
Sat 01:09:18 AM 54.7014 -6.9132 244° Southwest 466 536 34,000  Level FlightAware ADS-B
Sat 01:09:38 AM 54.6946 -6.9374 244° Southwest 466 536 34,000  Level FlightAware ADS-B (EIDW / DUB)
Sat 01:10:16 AM 54.6502 -7.0947 244° Southwest 467 537 34,000  Level FlightAware ADS-B (EIDW / DUB)
Sat 01:10:20 AM 54.6426 -7.1216 244° Southwest 463 533 34,000  Level FlightAware ADS-B (EPKK / KRK)
Sat 01:10:26 AM 54.6369 -7.1415 244° Southwest 463 533 34,000  Level FlightAware ADS-B (EPKK / KRK)
Sat 01:11:00 AM 54.6056 -7.2516 244° Southwest 467 537 34,000  Level FlightAware ADS-B
Sat 01:11:40 AM 54.5668 -7.3872 244° Southwest 467 537 34,000  Level FlightAware ADS-B
Sat 01:12:22 AM 54.5270 -7.5255 244° Southwest 468 539 34,000  Level FlightAware ADS-B
Sat 01:12:57 AM 54.4934 -7.6420 244° Southwest 448 516 34,000  Level FlightAware UK
Sat 01:13:01 AM 54.4897 -7.6546 244° Southwest 469 540 34,000  Level FlightAware ADS-B
Sat 01:13:33 AM 54.4603 -7.7555 243° Southwest 471 542 34,000  Level FlightAware ADS-B
Sat 01:14:24 AM 54.4097 -7.9284 243° Southwest 472 543 34,000  Level FlightAware ADS-B
Sat 01:14:54 AM 54.3793 -8.0321 243° Southwest 472 543 34,000  Level FlightAware ADS-B
Sat 01:15:26 AM 54.3482 -8.1371 243° Southwest 472 543 34,000  Level FlightAware ADS-B
Sat 01:15:56 AM 54.3191 -8.2355 243° Southwest 471 542 34,000  Level FlightAware ADS-B
Sat 01:16:28 AM 54.2872 -8.3424 243° Southwest 472 543 34,000  Level FlightAware ADS-B
Sat 01:16:58 AM 54.2572 -8.4428 243° Southwest 472 543 34,000 -188 Level FlightAware ADS-B
Sat 01:17:32 AM 54.2225 -8.5586 243° Southwest 448 516 33,800 -171 Descending FlightAware UK
Sat 01:17:33 AM 54.2225 -8.5583 243° Southwest 473 544 33,900 -774 Climbing FlightAware ADS-B
Sat 01:18:03 AM 54.1922 -8.6587 243° Southwest 472 543 33,400 -968 Descending FlightAware ADS-B
Sat 01:18:35 AM 54.1606 -8.7626 243° Southwest 473 544 32,900 -1,108 Descending FlightAware ADS-B
Sat 01:19:08 AM 54.1265 -8.8747 243° Southwest 452 520 32,200 -1,050 Descending FlightAware UK
Sat 01:19:15 AM 54.1203 -8.8947 243° Southwest 476 548 32,200 -811 Level FlightAware ADS-B
Sat 01:19:45 AM 54.0935 -8.9824 242° Southwest 477 549 31,700 -21 Descending FlightAware ADS-B
Sat 01:22:00 AM 54.0265 -9.4323 256° West  Level Estimated
Sat 01:23:00 AM 53.9961 -9.6318 256° West  Level Estimated
Sat 01:24:00 AM 53.9655 -9.8310 255° West  Level Estimated
Sat 01:25:00 AM 53.9345 -10.0299 255° West  Level Estimated
Sat 01:26:00 AM 53.9031 -10.2284 255° West  Level Estimated
Sat 01:27:00 AM 53.8715 -10.4267 255° West  Level Estimated
Sat 01:28:00 AM 53.8395 -10.6247 255° West  Level Estimated
Sat 01:29:00 AM 53.8073 -10.8224 255° West  Level Estimated
Sat 01:30:00 AM 53.7746 -11.0198 254° West  Level Estimated
Sat 01:31:00 AM 53.7417 -11.2169 254° West  Level Estimated
Sat 01:32:00 AM 53.7084 -11.4136 254° West  Level Estimated
Sat 01:33:00 AM 53.6748 -11.6101 254° West  Level Estimated
Sat 01:34:00 AM 53.6409 -11.8062 254° West  Level Estimated
Sat 01:35:00 AM 53.6067 -12.0021 254° West  Level Estimated
Sat 01:36:00 AM 53.5721 -12.1976 253° West  Level Estimated
Sat 01:37:00 AM 53.5373 -12.3927 253° West  Level Estimated
Sat 01:38:00 AM 53.5021 -12.5876 253° West  Level Estimated
Sat 01:39:00 AM 53.4666 -12.7821 253° West  Level Estimated
Sat 01:40:00 AM 53.4308 -12.9763 253° West  Level Estimated
Sat 01:41:00 AM 53.3946 -13.1702 253° West  Level Estimated
Sat 01:42:00 AM 53.3582 -13.3638 253° West  Level Estimated
Sat 01:43:00 AM 53.3214 -13.5570 252° West  Level Estimated
Sat 01:44:00 AM 53.2844 -13.7499 252° West  Level Estimated
Sat 01:45:00 AM 53.2470 -13.9424 252° West  Level Estimated
Sat 01:46:00 AM 53.2093 -14.1346 252° West  Level Estimated
Sat 01:47:00 AM 53.1713 -14.3265 252° West  Level Estimated
Sat 01:48:00 AM 53.1330 -14.5180 252° West  Level Estimated
Sat 01:49:00 AM 53.0944 -14.7092 251° West  Level Estimated
Sat 01:50:00 AM 53.0555 -14.9001 251° West  Level Estimated
Sat 01:51:00 AM 53.0163 -15.0906 251° West  Level Estimated
Sat 01:52:00 AM 52.9767 -15.2807 251° West  Level Estimated
Sat 01:53:00 AM 52.9369 -15.4705 251° West  Level Estimated
Sat 01:54:00 AM 52.8968 -15.6600 251° West  Level Estimated
Sat 01:55:00 AM 52.8563 -15.8491 251° West  Level Estimated
Sat 01:56:00 AM 52.8156 -16.0378 250° West  Level Estimated
Sat 01:57:00 AM 52.7746 -16.2262 250° West  Level Estimated
Sat 01:58:00 AM 52.7333 -16.4142 250° West  Level Estimated
Sat 01:59:00 AM 52.6916 -16.6019 250° West  Level Estimated
Sat 02:00:00 AM 52.6497 -16.7892 250° West  Level Estimated
Sat 02:01:00 AM 52.6075 -16.9762 250° West  Level Estimated
Sat 02:02:00 AM 52.5650 -17.1628 250° West  Level Estimated
Sat 02:03:00 AM 52.5222 -17.3491 249° West  Level Estimated
Sat 02:04:00 AM 52.4791 -17.5349 249° West  Level Estimated
Sat 02:05:00 AM 52.4357 -17.7204 249° West  Level Estimated
Sat 02:06:00 AM 52.3921 -17.9056 249° West  Level Estimated
Sat 02:07:00 AM 52.3481 -18.0903 249° West  Level Estimated
Sat 02:08:00 AM 52.3038 -18.2747 249° West  Level Estimated
Sat 02:09:00 AM 52.2593 -18.4588 248° West  Level Estimated
Sat 02:10:00 AM 52.2145 -18.6425 248° West  Level Estimated
Sat 02:11:00 AM 52.1694 -18.8258 248° West  Level Estimated
Sat 02:12:00 AM 52.1240 -19.0087 248° West  Level Estimated
Sat 02:13:00 AM 52.0783 -19.1912 248° West  Level Estimated
Sat 02:14:00 AM 52.0324 -19.3734 248° West  Level Estimated
Sat 02:15:00 AM 51.9861 -19.5552 248° West  Level Estimated
Sat 02:16:00 AM 51.9396 -19.7366 247° West  Level Estimated
Sat 02:16:00 AM 51.0000 -20.0000 249° West 451 519 31,000  Level ETMS Enhanced Traffic Management System
Sat 02:17:00 AM 51.8928 -19.9177 247° West  Level Estimated
Sat 02:18:00 AM 51.8458 -20.0983 247° West  Level Estimated
Sat 02:19:00 AM 51.7984 -20.2786 247° West  Level Estimated
Sat 02:20:00 AM 51.7508 -20.4585 247° West  Level Estimated
Sat 02:21:00 AM 51.7029 -20.6381 247° West  Level Estimated
Sat 02:22:00 AM 50.7260 -21.1099 248° West 451 519 31,000  Level FlightAware Transoceanic
Sat 02:23:00 AM 50.6793 -21.2936 248° West 451 519 31,000  Level FlightAware Transoceanic
Sat 02:24:00 AM 50.6324 -21.4770 248° West 451 519 31,000  Level FlightAware Transoceanic
Sat 02:25:00 AM 50.5851 -21.6600 248° West 451 519 31,000  Level FlightAware Transoceanic
Sat 02:26:00 AM 50.5376 -21.8426 248° West 451 519 31,000  Level FlightAware Transoceanic
Sat 02:27:00 AM 50.4897 -22.0249 248° West 451 519 31,000  Level FlightAware Transoceanic
Sat 02:28:00 AM 50.4416 -22.2067 247° West 451 519 31,000  Level FlightAware Transoceanic
Sat 02:29:00 AM 50.3932 -22.3882 247° West 451 519 31,000  Level FlightAware Transoceanic
Sat 02:30:00 AM 50.3446 -22.5694 247° West 451 519 31,000  Level FlightAware Transoceanic
Sat 02:31:00 AM 50.2956 -22.7501 247° West 451 519 31,000  Level FlightAware Transoceanic
Sat 02:32:00 AM 50.2464 -22.9305 247° West 451 519 31,000  Level FlightAware Transoceanic
Sat 02:33:00 AM 50.1968 -23.1105 247° West 451 519 31,000  Level FlightAware Transoceanic
Sat 02:34:00 AM 50.1471 -23.2902 247° West 451 519 31,000  Level FlightAware Transoceanic
Sat 02:35:00 AM 50.0970 -23.4694 246° West 451 519 31,000  Level FlightAware Transoceanic
Sat 02:36:00 AM 50.0466 -23.6483 246° West 451 519 31,000  Level FlightAware Transoceanic
Sat 02:37:00 AM 49.9960 -23.8269 246° West 451 519 31,000  Level FlightAware Transoceanic
Sat 02:38:00 AM 49.9451 -24.0050 246° West 451 519 31,000  Level FlightAware Transoceanic
Sat 02:39:00 AM 49.8940 -24.1828 246° West 451 519 31,000  Level FlightAware Transoceanic
Sat 02:40:00 AM 49.8425 -24.3601 246° West 451 519 31,000  Level FlightAware Transoceanic
Sat 02:41:00 AM 49.7908 -24.5371 246° West 451 519 31,000  Level FlightAware Transoceanic
Sat 02:42:00 AM 49.7388 -24.7138 245° Southwest 451 519 31,000  Level FlightAware Transoceanic
Sat 02:43:00 AM 49.6866 -24.8900 245° Southwest 451 519 31,000  Level FlightAware Transoceanic
Sat 02:44:00 AM 49.6341 -25.0659 245° Southwest 451 519 31,000  Level FlightAware Transoceanic
Sat 02:45:00 AM 49.5813 -25.2414 245° Southwest 451 519 31,000  Level FlightAware Transoceanic
Sat 02:46:00 AM 49.5283 -25.4165 245° Southwest 451 519 31,000  Level FlightAware Transoceanic
Sat 02:47:00 AM 49.4750 -25.5912 245° Southwest 451 519 31,000  Level FlightAware Transoceanic
Sat 02:48:00 AM 49.4214 -25.7656 245° Southwest 451 519 31,000  Level FlightAware Transoceanic
Sat 02:49:00 AM 49.3676 -25.9396 245° Southwest 451 519 31,000  Level FlightAware Transoceanic
Sat 02:50:00 AM 49.3135 -26.1131 244° Southwest 451 519 31,000  Level FlightAware Transoceanic
Sat 02:51:00 AM 49.2591 -26.2863 244° Southwest 451 519 31,000  Level FlightAware Transoceanic
Sat 02:52:00 AM 49.2045 -26.4592 244° Southwest 451 519 31,000  Level FlightAware Transoceanic
Sat 02:53:00 AM 49.1497 -26.6316 244° Southwest 451 519 31,000  Level FlightAware Transoceanic
Sat 02:54:00 AM 49.0946 -26.8037 244° Southwest 451 519 31,000  Level FlightAware Transoceanic
Sat 02:55:00 AM 49.0392 -26.9753 244° Southwest 451 519 31,000  Level FlightAware Transoceanic
Sat 02:56:00 AM 48.9836 -27.1466 244° Southwest 451 519 31,000  Level FlightAware Transoceanic
Sat 02:57:00 AM 48.9277 -27.3175 243° Southwest 451 519 31,000  Level FlightAware Transoceanic
Sat 02:58:00 AM 48.8715 -27.4881 243° Southwest 451 519 31,000  Level FlightAware Transoceanic
Sat 02:59:00 AM 48.8152 -27.6582 243° Southwest 451 519 31,000  Level FlightAware Transoceanic
Sat 03:00:00 AM 48.7585 -27.8280 243° Southwest 451 519 31,000  Level FlightAware Transoceanic
Sat 03:01:00 AM 48.7016 -27.9974 243° Southwest 451 519 31,000  Level FlightAware Transoceanic
Sat 03:02:00 AM 48.6445 -28.1663 243° Southwest 451 519 31,000  Level FlightAware Transoceanic
Sat 03:03:00 AM 48.5871 -28.3350 243° Southwest 451 519 31,000  Level FlightAware Transoceanic
Sat 03:04:00 AM 48.5295 -28.5032 243° Southwest 451 519 31,000  Level FlightAware Transoceanic
Sat 03:05:00 AM 48.4716 -28.6710 242° Southwest 451 519 31,000  Level FlightAware Transoceanic
Sat 03:06:00 AM 48.4135 -28.8385 242° Southwest 451 519 31,000  Level FlightAware Transoceanic
Sat 03:07:00 AM 48.3552 -29.0056 242° Southwest 451 519 31,000  Level FlightAware Transoceanic
Sat 03:08:00 AM 48.2966 -29.1723 242° Southwest 451 519 31,000  Level FlightAware Transoceanic
Sat 03:09:00 AM 48.2377 -29.3386 242° Southwest 451 519 31,000  Level FlightAware Transoceanic
Sat 03:10:00 AM 48.1786 -29.5045 242° Southwest 451 519 31,000  Level FlightAware Transoceanic
Sat 03:11:00 AM 48.1193 -29.6700 242° Southwest 451 519 31,000  Level FlightAware Transoceanic
Sat 03:12:00 AM 48.0598 -29.8352 242° Southwest 451 519 31,000  Level FlightAware Transoceanic
Sat 03:13:00 AM 48.0020 -29.9944 242° Southwest  Level FlightAware Approximate
Sat 03:14:00 AM 47.9441 -30.1532 241° Southwest  Level FlightAware Approximate
Sat 03:15:00 AM 47.9500 -30.1505 244° Southwest  Level FlightAware Approximate
Sat 03:16:00 AM 47.8959 -30.3121 244° Southwest  Level FlightAware Approximate
Sat 03:17:00 AM 47.8415 -30.4734 243° Southwest  Level FlightAware Approximate
Sat 03:18:00 AM 47.7870 -30.6344 243° Southwest  Level FlightAware Approximate
Sat 03:19:00 AM 47.7322 -30.7950 243° Southwest  Level FlightAware Approximate
Sat 03:20:00 AM 47.6772 -30.9553 243° Southwest  Level FlightAware Approximate
Sat 03:21:00 AM 47.6220 -31.1153 243° Southwest  Level FlightAware Approximate
Sat 03:22:00 AM 47.5666 -31.2749 243° Southwest  Level FlightAware Approximate
Sat 03:23:00 AM 47.5109 -31.4342 243° Southwest  Level FlightAware Approximate
Sat 03:24:00 AM 47.4550 -31.5931 243° Southwest  Level FlightAware Approximate
Sat 03:25:00 AM 47.3989 -31.7517 242° Southwest  Level FlightAware Approximate
Sat 03:26:00 AM 47.3426 -31.9100 242° Southwest  Level FlightAware Approximate
Sat 03:27:00 AM 47.2861 -32.0679 242° Southwest  Level FlightAware Approximate
Sat 03:28:00 AM 47.2293 -32.2255 242° Southwest  Level FlightAware Approximate
Sat 03:29:00 AM 47.1724 -32.3827 242° Southwest  Level FlightAware Approximate
Sat 03:30:00 AM 47.1152 -32.5396 242° Southwest  Level FlightAware Approximate
Sat 03:31:00 AM 47.0578 -32.6962 242° Southwest  Level FlightAware Approximate
Sat 03:32:00 AM 47.0002 -32.8524 242° Southwest  Level FlightAware Approximate
Sat 03:33:00 AM 46.9424 -33.0083 242° Southwest  Level FlightAware Approximate
Sat 03:34:00 AM 46.8843 -33.1639 241° Southwest  Level FlightAware Approximate
Sat 03:35:00 AM 46.8261 -33.3191 241° Southwest  Level FlightAware Approximate
Sat 03:36:00 AM 46.7676 -33.4740 241° Southwest  Level FlightAware Approximate
Sat 03:37:00 AM 46.7090 -33.6286 241° Southwest  Level FlightAware Approximate
Sat 03:38:00 AM 46.6501 -33.7828 241° Southwest  Level FlightAware Approximate
Sat 03:39:00 AM 46.5910 -33.9367 241° Southwest  Level FlightAware Approximate
Sat 03:40:00 AM 46.5318 -34.0902 241° Southwest  Level FlightAware Approximate
Sat 03:41:00 AM 46.4723 -34.2434 241° Southwest  Level FlightAware Approximate
Sat 03:42:00 AM 46.4126 -34.3963 241° Southwest  Level FlightAware Approximate
Sat 03:43:00 AM 46.3527 -34.5488 240° Southwest  Level FlightAware Approximate
Sat 03:44:00 AM 46.2926 -34.7010 240° Southwest  Level FlightAware Approximate
Sat 03:45:00 AM 46.2323 -34.8529 240° Southwest  Level FlightAware Approximate
Sat 03:46:00 AM 46.1718 -35.0044 240° Southwest  Level FlightAware Approximate
Sat 03:47:00 AM 46.1111 -35.1556 240° Southwest  Level FlightAware Approximate
Sat 03:48:00 AM 46.0502 -35.3065 240° Southwest  Level FlightAware Approximate
Sat 03:49:00 AM 45.9891 -35.4571 240° Southwest  Level FlightAware Approximate
Sat 03:50:00 AM 45.9278 -35.6073 240° Southwest  Level FlightAware Approximate
Sat 03:51:00 AM 45.8663 -35.7571 240° Southwest  Level FlightAware Approximate
Sat 03:52:00 AM 45.8047 -35.9067 239° Southwest  Level FlightAware Approximate
Sat 03:53:00 AM 45.7428 -36.0559 239° Southwest  Level FlightAware Approximate
Sat 03:54:00 AM 45.6807 -36.2048 239° Southwest  Level FlightAware Approximate
Sat 03:55:00 AM 45.6185 -36.3533 239° Southwest  Level FlightAware Approximate
Sat 03:56:00 AM 45.5560 -36.5015 239° Southwest  Level FlightAware Approximate
Sat 03:57:00 AM 45.4934 -36.6494 239° Southwest  Level FlightAware Approximate
Sat 03:58:00 AM 45.4305 -36.7970 239° Southwest  Level FlightAware Approximate
Sat 03:59:00 AM 45.3675 -36.9442 239° Southwest  Level FlightAware Approximate
Sat 04:00:00 AM 45.3043 -37.0911 239° Southwest  Level FlightAware Approximate
Sat 04:01:00 AM 45.2409 -37.2377 238° Southwest  Level FlightAware Approximate
Sat 04:02:00 AM 45.1773 -37.3839 238° Southwest  Level FlightAware Approximate
Sat 04:03:00 AM 45.1135 -37.5299 238° Southwest  Level FlightAware Approximate
Sat 04:04:00 AM 45.0495 -37.6754 238° Southwest  Level FlightAware Approximate
Sat 04:05:00 AM 44.9860 -37.8212 239° Southwest  Level FlightAware Approximate
Sat 04:06:00 AM 44.9228 -37.9672 239° Southwest  Level FlightAware Approximate
Sat 04:07:00 AM 44.8595 -38.1129 239° Southwest  Level FlightAware Approximate
Sat 04:08:00 AM 44.7960 -38.2582 238° Southwest  Level FlightAware Approximate
Sat 04:09:00 AM 44.7323 -38.4032 238° Southwest  Level FlightAware Approximate
Sat 04:10:00 AM 44.6684 -38.5479 238° Southwest  Level FlightAware Approximate
Sat 04:11:00 AM 44.6043 -38.6923 238° Southwest  Level FlightAware Approximate
Sat 04:12:00 AM 44.5401 -38.8364 238° Southwest  Level FlightAware Approximate
Sat 04:13:00 AM 44.4756 -38.9801 238° Southwest  Level FlightAware Approximate
Sat 04:14:00 AM 44.4102 -39.1228 237° Southwest  Level FlightAware Approximate
Sat 04:15:00 AM 44.3445 -39.2651 237° Southwest  Level FlightAware Approximate
Sat 04:16:00 AM 44.2786 -39.4071 237° Southwest  Level FlightAware Approximate
Sat 04:17:00 AM 44.2126 -39.5487 237° Southwest  Level FlightAware Approximate
Sat 04:18:00 AM 44.1464 -39.6901 237° Southwest  Level FlightAware Approximate
Sat 04:19:00 AM 44.0800 -39.8311 237° Southwest  Level FlightAware Approximate
Sat 04:20:00 AM 44.0134 -39.9718 237° Southwest  Level FlightAware Approximate
Sat 04:21:00 AM 43.9442 -40.1099 235° Southwest  Level FlightAware Approximate
Sat 04:22:00 AM 43.8742 -40.2470 235° Southwest  Level FlightAware Approximate
Sat 04:23:00 AM 43.8041 -40.3839 235° Southwest  Level FlightAware Approximate
Sat 04:24:00 AM 43.7338 -40.5204 235° Southwest  Level FlightAware Approximate
Sat 04:25:00 AM 43.6634 -40.6566 234° Southwest  Level FlightAware Approximate
Sat 04:26:00 AM 43.5928 -40.7924 234° Southwest  Level FlightAware Approximate
Sat 04:27:00 AM 43.5220 -40.9280 234° Southwest  Level FlightAware Approximate
Sat 04:27:08 AM 44.0000 -40.0000 235° Southwest 416 479 31,000  Level New York Oceanic (ODAPS)
Sat 04:28:00 AM 43.4511 -41.0633 234° Southwest  Level FlightAware Approximate
Sat 04:29:00 AM 43.3800 -41.1982 234° Southwest  Level FlightAware Approximate
Sat 04:30:00 AM 43.3087 -41.3328 234° Southwest  Level FlightAware Approximate
Sat 04:31:00 AM 43.2373 -41.4671 234° Southwest  Level FlightAware Approximate
Sat 04:32:00 AM 43.1658 -41.6011 234° Southwest  Level FlightAware Approximate
Sat 04:33:00 AM 43.5969 -40.7863 234° Southwest 416 479 31,000  Level FlightAware Transoceanic
Sat 04:33:10 AM 43.6000 -40.7667 234° Southwest 416 479 31,000  Level New York Oceanic (ODAPS)
Sat 04:34:00 AM 43.5292 -40.9163 234° Southwest 416 479 31,000  Level FlightAware Transoceanic
Sat 04:35:00 AM 43.4614 -41.0460 234° Southwest 416 479 31,000  Level FlightAware Transoceanic
Sat 04:36:00 AM 43.3934 -41.1755 234° Southwest 416 479 31,000  Level FlightAware Transoceanic
Sat 04:37:00 AM 43.3252 -41.3046 234° Southwest 416 479 31,000  Level FlightAware Transoceanic
Sat 04:38:00 AM 43.2569 -41.4335 234° Southwest 416 479 31,000  Level FlightAware Transoceanic
Sat 04:39:00 AM 43.1967 -41.5342 234° Southwest 416 479 31,000  Level FlightAware Transoceanic
Sat 04:40:00 AM 43.1290 -41.6611 234° Southwest 416 479 31,000  Level FlightAware Transoceanic
Sat 04:41:00 AM 43.0612 -41.7878 234° Southwest 416 479 31,000  Level FlightAware Transoceanic
Sat 04:42:00 AM 42.9932 -41.9142 234° Southwest 416 479 31,000  Level FlightAware Transoceanic
Sat 04:43:00 AM 42.9251 -42.0403 234° Southwest 416 479 31,000  Level FlightAware Transoceanic
Sat 04:44:00 AM 42.8568 -42.1661 233° Southwest 416 479 31,000  Level FlightAware Transoceanic
Sat 04:45:00 AM 42.7884 -42.2916 233° Southwest 416 479 31,000  Level FlightAware Transoceanic
Sat 04:46:00 AM 42.7199 -42.4169 233° Southwest 416 479 31,000  Level FlightAware Transoceanic
Sat 04:47:00 AM 42.6512 -42.5419 233° Southwest 416 479 31,000  Level FlightAware Transoceanic
Sat 04:47:03 AM 42.7333 -42.4000 233° Southwest 420 483 31,000  Level New York Oceanic (ODAPS)
Sat 04:48:00 AM 42.5824 -42.6666 233° Southwest 416 479 31,000  Level FlightAware Transoceanic
Sat 04:49:00 AM 42.5135 -42.7910 233° Southwest 416 479 31,000  Level FlightAware Transoceanic
Sat 04:50:00 AM 42.4444 -42.9151 233° Southwest 416 479 31,000  Level FlightAware Transoceanic
Sat 04:51:00 AM 42.3752 -43.0390 233° Southwest 416 479 31,000  Level FlightAware Transoceanic
Sat 04:52:00 AM 42.3058 -43.1626 233° Southwest 416 479 31,000  Level FlightAware Transoceanic
Sat 04:53:00 AM 42.3116 -43.1592 233° Southwest 420 483 31,000  Level FlightAware Transoceanic
Sat 04:54:00 AM 42.2408 -43.2847 233° Southwest 420 483 31,000  Level FlightAware Transoceanic
Sat 04:55:00 AM 42.1699 -43.4100 233° Southwest 420 483 31,000  Level FlightAware Transoceanic
Sat 04:56:00 AM 42.0989 -43.5349 232° Southwest 420 483 31,000  Level FlightAware Transoceanic
Sat 04:57:00 AM 42.0277 -43.6596 232° Southwest 420 483 31,000  Level FlightAware Transoceanic
Sat 04:58:00 AM 41.9564 -43.7840 232° Southwest 420 483 31,000  Level FlightAware Transoceanic
Sat 04:59:00 AM 41.8850 -43.9082 232° Southwest 420 483 31,000  Level FlightAware Transoceanic
Sat 05:00:00 AM 41.8134 -44.0320 232° Southwest 420 483 31,000  Level FlightAware Transoceanic
Sat 05:00:54 AM 41.8167 -44.0333 232° Southwest 428 493 31,000  Level New York Oceanic (ODAPS)
Sat 05:01:00 AM 41.7417 -44.1556 232° Southwest 420 483 31,000  Level FlightAware Transoceanic
Sat 05:02:00 AM 41.6698 -44.2789 232° Southwest 420 483 31,000  Level FlightAware Transoceanic
Sat 05:03:00 AM 41.5978 -44.4020 232° Southwest 420 483 31,000  Level FlightAware Transoceanic
Sat 05:04:00 AM 41.5257 -44.5247 232° Southwest 420 483 31,000  Level FlightAware Transoceanic
Sat 05:05:00 AM 41.4535 -44.6472 232° Southwest 420 483 31,000  Level FlightAware Transoceanic
Sat 05:06:00 AM 41.4492 -44.6606 232° Southwest 428 493 31,000  Level FlightAware Transoceanic
Sat 05:07:00 AM 41.3753 -44.7852 232° Southwest 428 493 31,000  Level FlightAware Transoceanic
Sat 05:08:00 AM 41.3013 -44.9095 232° Southwest 428 493 31,000  Level FlightAware Transoceanic
Sat 05:09:00 AM 41.2271 -45.0336 231° Southwest 428 493 31,000  Level FlightAware Transoceanic
Sat 05:10:00 AM 41.1528 -45.1573 231° Southwest 428 493 31,000  Level FlightAware Transoceanic
Sat 05:11:00 AM 41.0784 -45.2808 231° Southwest 428 493 31,000  Level FlightAware Transoceanic
Sat 05:12:00 AM 41.0038 -45.4040 231° Southwest 428 493 31,000  Level FlightAware Transoceanic
Sat 05:13:00 AM 40.9291 -45.5269 231° Southwest 428 493 31,000  Level FlightAware Transoceanic
Sat 05:14:00 AM 40.8543 -45.6496 231° Southwest 428 493 31,000  Level FlightAware Transoceanic
Sat 05:14:47 AM 40.8333 -45.6833 231° Southwest 431 496 31,000  Level New York Oceanic (ODAPS)
Sat 05:15:00 AM 40.7794 -45.7719 231° Southwest 428 493 31,000  Level FlightAware Transoceanic
Sat 05:16:00 AM 40.7043 -45.8940 231° Southwest 428 493 31,000  Level FlightAware Transoceanic
Sat 05:17:00 AM 40.6291 -46.0158 231° Southwest 428 493 31,000  Level FlightAware Transoceanic
Sat 05:18:00 AM 40.5538 -46.1374 231° Southwest 428 493 31,000  Level FlightAware Transoceanic
Sat 05:19:00 AM 40.4783 -46.2586 231° Southwest 428 493 31,000  Level FlightAware Transoceanic
Sat 05:20:00 AM 40.4027 -46.3796 231° Southwest 428 493 31,000  Level FlightAware Transoceanic
Sat 05:21:00 AM 40.3724 -46.4275 231° Southwest 431 496 31,000  Level FlightAware Transoceanic
Sat 05:22:00 AM 40.2951 -46.5505 230° Southwest 431 496 31,000  Level FlightAware Transoceanic
Sat 05:23:00 AM 40.2177 -46.6733 230° Southwest 431 496 31,000  Level FlightAware Transoceanic
Sat 05:24:00 AM 40.1402 -46.7958 230° Southwest 431 496 31,000  Level FlightAware Transoceanic
Sat 05:25:00 AM 40.0625 -46.9180 230° Southwest 431 496 31,000  Level FlightAware Transoceanic
Sat 05:26:00 AM 39.9847 -47.0399 230° Southwest 431 496 31,000  Level FlightAware Transoceanic
Sat 05:27:00 AM 39.9068 -47.1615 230° Southwest 431 496 31,000  Level FlightAware Transoceanic
Sat 05:28:00 AM 39.8287 -47.2829 230° Southwest 431 496 31,000  Level FlightAware Transoceanic
Sat 05:28:39 AM 39.8167 -47.3000 230° Southwest 424 488 31,000  Level New York Oceanic (ODAPS)
Sat 05:29:00 AM 39.7506 -47.4039 230° Southwest 431 496 31,000  Level FlightAware Transoceanic
Sat 05:30:00 AM 39.6723 -47.5248 230° Southwest 431 496 31,000  Level FlightAware Transoceanic
Sat 05:31:00 AM 39.5938 -47.6453 230° Southwest 431 496 31,000  Level FlightAware Transoceanic
Sat 05:32:00 AM 39.5153 -47.7656 230° Southwest 431 496 31,000  Level FlightAware Transoceanic
Sat 05:33:00 AM 39.4366 -47.8856 230° Southwest 431 496 31,000  Level FlightAware Transoceanic
Sat 05:34:00 AM 39.3578 -48.0053 230° Southwest 431 496 31,000  Level FlightAware Transoceanic
Sat 05:35:00 AM 39.3488 -48.0178 230° Southwest 424 488 31,000  Level FlightAware Transoceanic
Sat 05:36:00 AM 39.2704 -48.1365 229° Southwest 424 488 31,000  Level FlightAware Transoceanic
Sat 05:37:00 AM 39.1919 -48.2549 229° Southwest 424 488 31,000  Level FlightAware Transoceanic
Sat 05:38:00 AM 39.1132 -48.3730 229° Southwest 424 488 31,000  Level FlightAware Transoceanic
Sat 05:39:00 AM 39.0345 -48.4909 229° Southwest 424 488 31,000  Level FlightAware Transoceanic
Sat 05:40:00 AM 38.9556 -48.6086 229° Southwest 424 488 31,000  Level FlightAware Transoceanic
Sat 05:41:00 AM 38.8766 -48.7259 229° Southwest 424 488 31,000  Level FlightAware Transoceanic
Sat 05:42:00 AM 38.7975 -48.8430 229° Southwest 424 488 31,000  Level FlightAware Transoceanic
Sat 05:42:30 AM 38.7667 -48.8833 229° Southwest 419 482 31,000  Level New York Oceanic (ODAPS)
Sat 05:43:00 AM 38.7182 -48.9599 229° Southwest 424 488 31,000  Level FlightAware Transoceanic
Sat 05:44:00 AM 38.6389 -49.0765 229° Southwest 424 488 31,000  Level FlightAware Transoceanic
Sat 05:45:00 AM 38.5594 -49.1928 229° Southwest 424 488 31,000  Level FlightAware Transoceanic
Sat 05:46:00 AM 38.4799 -49.3089 229° Southwest 424 488 31,000  Level FlightAware Transoceanic
Sat 05:47:00 AM 38.4002 -49.4247 229° Southwest 424 488 31,000  Level FlightAware Transoceanic
Sat 05:48:00 AM 38.3079 -49.5562 229° Southwest 419 482 31,000  Level FlightAware Transoceanic
Sat 05:49:00 AM 38.2311 -49.6675 229° Southwest 419 482 31,000  Level FlightAware Transoceanic
Sat 05:50:00 AM 38.1542 -49.7785 229° Southwest 419 482 31,000  Level FlightAware Transoceanic
Sat 05:51:00 AM 38.0771 -49.8894 229° Southwest 419 482 31,000  Level FlightAware Transoceanic
Sat 05:52:00 AM 38.0000 -50.0000 221° Southwest 419 482 31,000  Level FlightAware Transoceanic
Sat 05:52:52 AM 38.0000 -50.0000 221° Southwest 457 526 31,000  Level New York Oceanic (ODAPS)
Sat 05:53:00 AM 37.9059 -50.1023 221° Southwest 419 482 31,000  Level FlightAware Transoceanic
Sat 05:54:00 AM 37.8117 -50.2043 221° Southwest 419 482 31,000  Level FlightAware Transoceanic
Sat 05:55:00 AM 37.7174 -50.3061 220° Southwest 419 482 31,000  Level FlightAware Transoceanic
Sat 05:56:00 AM 37.6230 -50.4076 220° Southwest 419 482 31,000  Level FlightAware Transoceanic
Sat 05:56:22 AM 37.6333 -50.3833 220° Southwest 453 521 31,000  Level New York Oceanic (ODAPS)
Sat 05:57:00 AM 37.5286 -50.5089 220° Southwest 419 482 31,000  Level FlightAware Transoceanic
Sat 05:58:00 AM 37.4340 -50.6099 220° Southwest 419 482 31,000  Level FlightAware Transoceanic
Sat 05:59:00 AM 37.3264 -50.7244 220° Southwest 457 526 31,000  Level FlightAware Transoceanic
Sat 06:00:00 AM 37.2298 -50.8268 220° Southwest 457 526 31,000  Level FlightAware Transoceanic
Sat 06:01:00 AM 37.1331 -50.9290 220° Southwest 457 526 31,000  Level FlightAware Transoceanic
Sat 06:02:00 AM 37.0641 -50.9903 220° Southwest 453 521 31,000  Level FlightAware Transoceanic
Sat 06:03:00 AM 36.9689 -51.0906 220° Southwest 453 521 31,000  Level FlightAware Transoceanic
Sat 06:04:00 AM 36.8737 -51.1906 220° Southwest 453 521 31,000  Level FlightAware Transoceanic
Sat 06:05:00 AM 36.7784 -51.2904 220° Southwest 453 521 31,000  Level FlightAware Transoceanic
Sat 06:06:00 AM 36.6829 -51.3899 220° Southwest 453 521 31,000  Level FlightAware Transoceanic
Sat 06:07:00 AM 36.5874 -51.4892 220° Southwest 453 521 31,000  Level FlightAware Transoceanic
Sat 06:08:00 AM 36.4918 -51.5882 220° Southwest 453 521 31,000  Level FlightAware Transoceanic
Sat 06:09:00 AM 36.3962 -51.6870 220° Southwest 453 521 31,000  Level FlightAware Transoceanic
Sat 06:10:00 AM 36.3004 -51.7855 220° Southwest 453 521 31,000  Level FlightAware Transoceanic
Sat 06:10:14 AM 36.3167 -51.7667 220° Southwest 468 539 31,000  Level New York Oceanic (ODAPS)
Sat 06:11:00 AM 36.2046 -51.8838 220° Southwest 453 521 31,000  Level FlightAware Transoceanic
Sat 06:12:00 AM 36.1087 -51.9819 220° Southwest 453 521 31,000  Level FlightAware Transoceanic
Sat 06:13:00 AM 36.0127 -52.0797 219° Southwest 453 521 31,000  Level FlightAware Transoceanic
Sat 06:14:00 AM 35.9166 -52.1773 219° Southwest 453 521 31,000  Level FlightAware Transoceanic
Sat 06:15:00 AM 35.8205 -52.2746 219° Southwest 453 521 31,000  Level FlightAware Transoceanic
Sat 06:16:00 AM 35.7201 -52.3742 219° Southwest 468 539 31,000  Level FlightAware Transoceanic
Sat 06:17:00 AM 35.6204 -52.4745 219° Southwest 468 539 31,000  Level FlightAware Transoceanic
Sat 06:18:00 AM 35.5206 -52.5746 219° Southwest 468 539 31,000  Level FlightAware Transoceanic
Sat 06:19:00 AM 35.4207 -52.6745 219° Southwest 468 539 31,000  Level FlightAware Transoceanic
Sat 06:20:00 AM 35.3208 -52.7741 219° Southwest 468 539 31,000  Level FlightAware Transoceanic
Sat 06:21:00 AM 35.2207 -52.8735 219° Southwest 468 539 31,000  Level FlightAware Transoceanic
Sat 06:22:00 AM 35.1206 -52.9726 219° Southwest 468 539 31,000  Level FlightAware Transoceanic
Sat 06:23:00 AM 35.0204 -53.0715 219° Southwest 468 539 31,000  Level FlightAware Transoceanic
Sat 06:24:00 AM 34.9201 -53.1702 219° Southwest 468 539 31,000  Level FlightAware Transoceanic
Sat 06:24:07 AM 34.9333 -53.1667 219° Southwest 473 544 31,000  Level New York Oceanic (ODAPS)
Sat 06:25:00 AM 34.8197 -53.2686 219° Southwest 468 539 31,000  Level FlightAware Transoceanic
Sat 06:26:00 AM 34.7192 -53.3667 219° Southwest 468 539 31,000  Level FlightAware Transoceanic
Sat 06:27:00 AM 34.6187 -53.4646 219° Southwest 468 539 31,000  Level FlightAware Transoceanic
Sat 06:28:00 AM 34.5181 -53.5623 219° Southwest 468 539 31,000  Level FlightAware Transoceanic
Sat 06:29:00 AM 34.4174 -53.6598 219° Southwest 468 539 31,000  Level FlightAware Transoceanic
Sat 06:30:00 AM 34.3258 -53.7547 218° Southwest 473 544 31,000  Level FlightAware Transoceanic
Sat 06:31:00 AM 34.2242 -53.8518 218° Southwest 473 544 31,000  Level FlightAware Transoceanic
Sat 06:32:00 AM 34.1226 -53.9488 218° Southwest 473 544 31,000  Level FlightAware Transoceanic
Sat 06:33:00 AM 34.0209 -54.0455 218° Southwest 473 544 31,000  Level FlightAware Transoceanic
Sat 06:34:00 AM 33.9192 -54.1420 218° Southwest 473 544 31,000  Level FlightAware Transoceanic
Sat 06:35:00 AM 33.8173 -54.2382 218° Southwest 473 544 31,000  Level FlightAware Transoceanic
Sat 06:36:00 AM 33.7154 -54.3342 218° Southwest 473 544 31,000  Level FlightAware Transoceanic
Sat 06:37:00 AM 33.6134 -54.4300 218° Southwest 473 544 31,000  Level FlightAware Transoceanic
Sat 06:37:58 AM 33.5000 -54.5333 218° Southwest 465 535 31,000  Level New York Oceanic (ODAPS)
Sat 06:38:00 AM 33.5114 -54.5256 218° Southwest 473 544 31,000  Level FlightAware Transoceanic
Sat 06:39:00 AM 33.4092 -54.6209 218° Southwest 473 544 31,000  Level FlightAware Transoceanic
Sat 06:40:00 AM 33.3070 -54.7160 218° Southwest 473 544 31,000  Level FlightAware Transoceanic
Sat 06:41:00 AM 33.2048 -54.8109 218° Southwest 473 544 31,000  Level FlightAware Transoceanic
Sat 06:42:00 AM 33.1024 -54.9056 218° Southwest 473 544 31,000  Level FlightAware Transoceanic
Sat 06:43:00 AM 33.0000 -55.0000 222° Southwest 473 544 31,000  Level FlightAware Transoceanic
Sat 06:43:01 AM 33.0000 -55.0000 222° Southwest 473 544 31,000  Level New York Oceanic (ODAPS)
Sat 06:44:00 AM 32.9020 -55.1053 222° Southwest 465 535 31,000  Level FlightAware Transoceanic
Sat 06:45:00 AM 32.8038 -55.2103 222° Southwest 465 535 31,000  Level FlightAware Transoceanic
Sat 06:46:00 AM 32.7056 -55.3151 222° Southwest 465 535 31,000  Level FlightAware Transoceanic
Sat 06:47:00 AM 32.6073 -55.4197 222° Southwest 465 535 31,000  Level FlightAware Transoceanic
Sat 06:48:00 AM 32.5089 -55.5240 222° Southwest 465 535 31,000  Level FlightAware Transoceanic
Sat 06:49:00 AM 32.4105 -55.6281 222° Southwest 473 544 31,000  Level FlightAware Transoceanic
Sat 06:50:00 AM 32.3119 -55.7320 222° Southwest 473 544 31,000  Level FlightAware Transoceanic
Sat 06:51:00 AM 32.2133 -55.8356 222° Southwest 473 544 31,000  Level FlightAware Transoceanic
Sat 06:51:50 AM 32.1000 -55.9667 221° Southwest 477 549 31,000  Level New York Oceanic (ODAPS)
Sat 06:52:00 AM 32.1145 -55.9391 222° Southwest 473 544 31,000  Level FlightAware Transoceanic
Sat 06:53:00 AM 32.0157 -56.0423 221° Southwest 473 544 31,000  Level FlightAware Transoceanic
Sat 06:54:00 AM 31.9168 -56.1453 221° Southwest 473 544 31,000  Level FlightAware Transoceanic
Sat 06:55:00 AM 31.8179 -56.2480 221° Southwest 473 544 31,000  Level FlightAware Transoceanic
Sat 06:56:00 AM 31.7188 -56.3506 221° Southwest 473 544 31,000  Level FlightAware Transoceanic
Sat 06:57:00 AM 31.6197 -56.4529 221° Southwest 473 544 31,000  Level FlightAware Transoceanic
Sat 06:58:00 AM 31.4931 -56.5935 221° Southwest 477 549 31,000  Level FlightAware Transoceanic
Sat 06:59:00 AM 31.3916 -56.6972 221° Southwest 477 549 31,000  Level FlightAware Transoceanic
Sat 07:00:00 AM 31.2901 -56.8007 221° Southwest 477 549 31,000  Level FlightAware Transoceanic
Sat 07:01:00 AM 31.1885 -56.9039 221° Southwest 477 549 31,000  Level FlightAware Transoceanic
Sat 07:02:00 AM 31.0868 -57.0069 221° Southwest 477 549 31,000  Level FlightAware Transoceanic
Sat 07:03:00 AM 30.9850 -57.1097 221° Southwest 477 549 31,000  Level FlightAware Transoceanic
Sat 07:04:00 AM 30.8831 -57.2123 221° Southwest 477 549 31,000  Level FlightAware Transoceanic
Sat 07:05:00 AM 30.7812 -57.3146 221° Southwest 477 549 31,000  Level FlightAware Transoceanic
Sat 07:05:42 AM 30.7167 -57.3833 221° Southwest 477 549 31,000  Level New York Oceanic (ODAPS)
Sat 07:06:00 AM 30.6792 -57.4168 221° Southwest 477 549 31,000  Level FlightAware Transoceanic
Sat 07:07:00 AM 30.5771 -57.5187 221° Southwest 477 549 31,000  Level FlightAware Transoceanic
Sat 07:08:00 AM 30.4749 -57.6204 221° Southwest 477 549 31,000  Level FlightAware Transoceanic
Sat 07:09:00 AM 30.3726 -57.7219 221° Southwest 477 549 31,000  Level FlightAware Transoceanic
Sat 07:10:00 AM 30.2703 -57.8232 220° Southwest 477 549 31,000  Level FlightAware Transoceanic
Sat 07:11:00 AM 30.1983 -57.8975 220° Southwest 477 549 31,000  Level FlightAware Transoceanic
Sat 07:12:00 AM 30.0943 -57.9997 220° Southwest 477 549 31,000  Level FlightAware Transoceanic
Sat 07:13:00 AM 29.9903 -58.1017 220° Southwest 477 549 31,000  Level FlightAware Transoceanic
Sat 07:14:00 AM 29.8863 -58.2035 220° Southwest 477 549 31,000  Level FlightAware Transoceanic
Sat 07:15:00 AM 29.7821 -58.3050 220° Southwest 477 549 31,000  Level FlightAware Transoceanic
Sat 07:16:00 AM 29.6779 -58.4064 220° Southwest 477 549 31,000  Level FlightAware Transoceanic
Sat 07:17:00 AM 29.5736 -58.5075 220° Southwest 477 549 31,000  Level FlightAware Transoceanic
Sat 07:18:00 AM 29.4692 -58.6084 220° Southwest 477 549 31,000  Level FlightAware Transoceanic
Sat 07:19:00 AM 29.3647 -58.7091 220° Southwest 477 549 31,000  Level FlightAware Transoceanic
Sat 07:19:34 AM 29.3167 -58.7500 220° Southwest 473 544 31,000  Level New York Oceanic (ODAPS)
Sat 07:20:00 AM 29.2602 -58.8096 220° Southwest 477 549 31,000  Level FlightAware Transoceanic
Sat 07:21:00 AM 29.1556 -58.9099 220° Southwest 477 549 31,000  Level FlightAware Transoceanic
Sat 07:22:00 AM 29.0509 -59.0100 220° Southwest 477 549 31,000  Level FlightAware Transoceanic
Sat 07:23:00 AM 28.9461 -59.1099 220° Southwest 477 549 31,000  Level FlightAware Transoceanic
Sat 07:24:00 AM 28.8413 -59.2096 220° Southwest 477 549 31,000  Level FlightAware Transoceanic
Sat 07:25:00 AM 28.7104 -59.3308 220° Southwest 473 544 31,000  Level FlightAware Transoceanic
Sat 07:26:00 AM 28.6091 -59.4270 220° Southwest 473 544 31,000  Level FlightAware Transoceanic
Sat 07:27:00 AM 28.5078 -59.5229 220° Southwest 473 544 31,000  Level FlightAware Transoceanic
Sat 07:28:00 AM 28.4063 -59.6187 220° Southwest 473 544 31,000  Level FlightAware Transoceanic
Sat 07:29:00 AM 28.3049 -59.7143 220° Southwest 473 544 31,000  Level FlightAware Transoceanic
Sat 07:30:00 AM 28.2033 -59.8097 220° Southwest 473 544 31,000  Level FlightAware Transoceanic
Sat 07:31:00 AM 28.1017 -59.9049 220° Southwest 473 544 31,000  Level FlightAware Transoceanic
Sat 07:32:00 AM 28.0000 -60.0000 221° Southwest 473 544 31,000  Level FlightAware Transoceanic
Sat 07:32:39 AM 28.0000 -60.0000 221° Southwest 469 540 31,000  Level New York Oceanic (ODAPS)
Sat 07:33:00 AM 27.9029 -60.0967 221° Southwest 473 544 31,000  Level FlightAware Transoceanic
Sat 07:33:26 AM 27.9167 -60.0833 221° Southwest 469 540 31,000  Level New York Oceanic (ODAPS)
Sat 07:34:00 AM 27.8058 -60.1932 221° Southwest 473 544 31,000  Level FlightAware Transoceanic
Sat 07:35:00 AM 27.7086 -60.2896 221° Southwest 473 544 31,000  Level FlightAware Transoceanic
Sat 07:36:00 AM 27.6114 -60.3858 221° Southwest 473 544 31,000  Level FlightAware Transoceanic
Sat 07:37:00 AM 27.5140 -60.4818 221° Southwest 473 544 31,000  Level FlightAware Transoceanic
Sat 07:38:00 AM 27.4167 -60.5777 221° Southwest 469 540 31,000  Level FlightAware Transoceanic
Sat 07:39:00 AM 27.3317 -60.6613 221° Southwest 469 540 31,000  Level FlightAware Transoceanic
Sat 07:40:00 AM 27.2340 -60.7571 221° Southwest 469 540 31,000  Level FlightAware Transoceanic
Sat 07:41:00 AM 27.1362 -60.8526 221° Southwest 469 540 31,000  Level FlightAware Transoceanic
Sat 07:42:00 AM 27.0384 -60.9481 221° Southwest 469 540 31,000  Level FlightAware Transoceanic
Sat 07:43:00 AM 26.9404 -61.0433 221° Southwest 469 540 31,000  Level FlightAware Transoceanic
Sat 07:44:00 AM 26.8425 -61.1384 221° Southwest 469 540 31,000  Level FlightAware Transoceanic
Sat 07:45:00 AM 26.7444 -61.2333 221° Southwest 469 540 31,000  Level FlightAware Transoceanic
Sat 07:46:00 AM 26.6463 -61.3280 221° Southwest 469 540 31,000  Level FlightAware Transoceanic
Sat 07:47:00 AM 26.5481 -61.4226 221° Southwest 469 540 31,000  Level FlightAware Transoceanic
Sat 07:47:20 AM 26.5167 -61.4500 221° Southwest 470 541 31,000  Level New York Oceanic (ODAPS)
Sat 07:48:00 AM 26.4499 -61.5170 221° Southwest 469 540 31,000  Level FlightAware Transoceanic
Sat 07:49:00 AM 26.3516 -61.6113 221° Southwest 469 540 31,000  Level FlightAware Transoceanic
Sat 07:50:00 AM 26.2533 -61.7054 221° Southwest 469 540 31,000  Level FlightAware Transoceanic
Sat 07:51:00 AM 26.1548 -61.7993 221° Southwest 469 540 31,000  Level FlightAware Transoceanic
Sat 07:52:00 AM 26.0564 -61.8931 221° Southwest 469 540 31,000  Level FlightAware Transoceanic
Sat 07:53:00 AM 25.9182 -62.0218 220° Southwest 470 541 31,000  Level FlightAware Transoceanic
Sat 07:54:00 AM 25.8183 -62.1165 220° Southwest 470 541 31,000  Level FlightAware Transoceanic
Sat 07:55:00 AM 25.7182 -62.2111 220° Southwest 470 541 31,000  Level FlightAware Transoceanic
Sat 07:56:00 AM 25.6181 -62.3055 220° Southwest 470 541 31,000  Level FlightAware Transoceanic
Sat 07:57:00 AM 25.5180 -62.3997 220° Southwest 470 541 31,000  Level FlightAware Transoceanic
Sat 07:58:00 AM 25.4178 -62.4938 220° Southwest 470 541 31,000  Level FlightAware Transoceanic
Sat 07:59:00 AM 25.3175 -62.5878 220° Southwest 470 541 31,000  Level FlightAware Transoceanic
Sat 08:00:00 AM 25.2172 -62.6816 220° Southwest 470 541 31,000  Level FlightAware Transoceanic
Sat 08:01:00 AM 25.1168 -62.7752 220° Southwest 470 541 31,000  Level FlightAware Transoceanic
Sat 08:01:11 AM 25.1333 -62.7667 220° Southwest 466 536 31,000  Level New York Oceanic (ODAPS)
Sat 08:02:00 AM 25.0164 -62.8687 220° Southwest 470 541 31,000  Level FlightAware Transoceanic
Sat 08:03:00 AM 24.9159 -62.9620 220° Southwest 470 541 31,000  Level FlightAware Transoceanic
Sat 08:04:00 AM 24.8153 -63.0552 220° Southwest 470 541 31,000  Level FlightAware Transoceanic
Sat 08:05:00 AM 24.7147 -63.1482 220° Southwest 470 541 31,000  Level FlightAware Transoceanic
Sat 08:06:00 AM 24.6140 -63.2411 220° Southwest 470 541 31,000  Level FlightAware Transoceanic
Sat 08:07:00 AM 24.5435 -63.3117 220° Southwest 466 536 31,000  Level FlightAware Transoceanic
Sat 08:08:00 AM 24.4450 -63.4020 220° Southwest 466 536 31,000  Level FlightAware Transoceanic
Sat 08:09:00 AM 24.3465 -63.4922 220° Southwest 466 536 31,000  Level FlightAware Transoceanic
Sat 08:10:00 AM 24.2479 -63.5823 220° Southwest 466 536 31,000  Level FlightAware Transoceanic
Sat 08:11:00 AM 24.1492 -63.6722 220° Southwest 466 536 31,000  Level FlightAware Transoceanic
Sat 08:12:00 AM 24.0505 -63.7620 220° Southwest 466 536 31,000  Level FlightAware Transoceanic
Sat 08:13:00 AM 23.9517 -63.8516 220° Southwest 466 536 31,000  Level FlightAware Transoceanic
Sat 08:14:00 AM 23.8529 -63.9411 220° Southwest 466 536 31,000  Level FlightAware Transoceanic
Sat 08:15:00 AM 23.7541 -64.0305 220° Southwest 466 536 31,000  Level FlightAware Transoceanic
Sat 08:15:03 AM 23.7500 -64.0333 220° Southwest 464 534 31,000  Level New York Oceanic (ODAPS)
Sat 08:16:00 AM 23.6551 -64.1197 220° Southwest 466 536 31,000  Level FlightAware Transoceanic
Sat 08:17:00 AM 23.5562 -64.2088 220° Southwest 466 536 31,000  Level FlightAware Transoceanic
Sat 08:18:00 AM 23.4572 -64.2978 219° Southwest 466 536 31,000  Level FlightAware Transoceanic
Sat 08:19:00 AM 23.3581 -64.3866 219° Southwest 466 536 31,000  Level FlightAware Transoceanic
Sat 08:20:00 AM 23.2590 -64.4753 219° Southwest 466 536 31,000  Level FlightAware Transoceanic
Sat 08:21:00 AM 23.1568 -64.5659 219° Southwest 464 534 31,000  Level FlightAware Transoceanic
Sat 08:22:00 AM 23.0578 -64.6543 219° Southwest 464 534 31,000  Level FlightAware Transoceanic
Sat 08:23:00 AM 22.9587 -64.7424 219° Southwest 464 534 31,000  Level FlightAware Transoceanic
Sat 08:24:00 AM 22.8595 -64.8305 219° Southwest 464 534 31,000  Level FlightAware Transoceanic
Sat 08:25:00 AM 22.7603 -64.9184 219° Southwest 464 534 31,000  Level FlightAware Transoceanic
Sat 08:26:00 AM 22.6611 -65.0062 219° Southwest 464 534 31,000  Level FlightAware Transoceanic
Sat 08:27:00 AM 22.5618 -65.0938 219° Southwest 464 534 31,000  Level FlightAware Transoceanic
Sat 08:28:00 AM 22.4625 -65.1814 219° Southwest 464 534 31,000  Level FlightAware Transoceanic
Sat 08:28:54 AM 22.3500 -65.2833 219° Southwest 459 528 31,000  Level New York Oceanic (ODAPS)
Sat 08:29:00 AM 22.3631 -65.2688 219° Southwest 464 534 31,000  Level FlightAware Transoceanic
Sat 08:29:51 AM 22.2500 -65.3500 219° Southwest 470 541 31,000  Level San Juan Center
Sat 08:30:00 AM 22.2637 -65.3561 219° Southwest 464 534 31,000  Level FlightAware Transoceanic
Sat 08:30:51 AM 22.1500 -65.4333 218° Southwest 450 518 31,000  Level San Juan Center
Sat 08:31:00 AM 22.1642 -65.4433 219° Southwest 464 534 31,000  Level FlightAware Transoceanic
Sat 08:31:51 AM 22.0500 -65.5167 218° Southwest 460 529 31,000  Level San Juan Center
Sat 08:32:00 AM 22.0647 -65.5303 219° Southwest 464 534 31,000  Level FlightAware Transoceanic
Sat 08:32:51 AM 21.9667 -65.6167 228° Southwest 440 506 31,000  Level San Juan Center
Sat 08:33:00 AM 21.9652 -65.6172 219° Southwest 464 534 31,000  Level FlightAware Transoceanic
Sat 08:33:51 AM 21.8833 -65.7167 228° Southwest 450 518 31,000  Level San Juan Center
Sat 08:34:00 AM 21.8597 -65.7104 219° Southwest 459 528 31,000  Level FlightAware Transoceanic
Sat 08:34:52 AM 21.8000 -65.8167 228° Southwest 440 506 31,000  Level San Juan Center
Sat 08:35:00 AM 21.7615 -65.7955 219° Southwest 459 528 31,000  Level FlightAware Transoceanic
Sat 08:35:52 AM 21.7000 -65.9333 227° Southwest 500 575 31,000  Level San Juan Center
Sat 08:36:52 AM 21.6167 -66.0167 223° Southwest 460 529 31,000  Level San Juan Center
Sat 08:37:52 AM 21.5333 -66.1167 228° Southwest 470 541 31,000  Level San Juan Center
Sat 08:38:52 AM 21.4500 -66.2167 228° Southwest 460 529 31,000  Level San Juan Center
Sat 08:39:52 AM 21.3667 -66.3167 228° Southwest 480 552 31,000  Level San Juan Center
Sat 08:40:52 AM 21.2833 -66.4167 228° Southwest 440 506 31,000  Level San Juan Center
Sat 08:41:52 AM 21.1833 -66.5167 223° Southwest 430 495 31,000  Level San Juan Center
Sat 08:42:53 AM 21.1000 -66.6167 228° Southwest 450 518 31,000  Level San Juan Center
Sat 08:43:53 AM 21.0167 -66.7167 228° Southwest 450 518 31,000  Level San Juan Center
Sat 08:44:53 AM 20.9333 -66.8167 228° Southwest 460 529 31,000  Level San Juan Center
Sat 08:45:53 AM 20.8333 -66.9167 223° Southwest 450 518 31,000  Level San Juan Center
Sat 08:46:53 AM 20.7500 -67.0167 228° Southwest 460 529 31,000  Level San Juan Center
Sat 08:47:53 AM 20.6667 -67.1167 228° Southwest 450 518 31,000  Level San Juan Center
Sat 08:48:54 AM 20.5833 -67.2000 223° Southwest 450 518 31,000  Level San Juan Center
Sat 08:49:54 AM 20.5000 -67.3000 228° Southwest 450 518 31,000  Level San Juan Center
Sat 08:50:54 AM 20.4167 -67.4000 228° Southwest 450 518 31,000  Level San Juan Center
Sat 08:51:54 AM 20.3167 -67.5000 223° Southwest 450 518 31,000 -250 Level San Juan Center
Sat 08:52:54 AM 20.2333 -67.6000 228° Southwest 450 518 30,500 -800 Descending San Juan Center
Sat 08:53:54 AM 20.1500 -67.6833 223° Southwest 430 495 29,400 -1,100 Descending San Juan Center
Sat 08:54:54 AM 20.0833 -67.7833 235° Southwest 420 483 28,300 -992 Descending San Juan Center
Sat 08:55:55 AM 20.0000 -67.8667 223° Southwest 410 472 27,400 -1,100 Descending San Juan Center
Sat 08:56:54 AM 19.9167 -67.9500 223° Southwest 410 472 26,100 -1,600 Descending San Juan Center
Sat 08:57:55 AM 19.8333 -68.0333 223° Southwest 400 460 24,200 -1,800 Descending San Juan Center
Sat 08:58:54 AM 19.7667 -68.1167 230° Southwest 400 460 22,500 -1,750 Descending San Juan Center
Sat 08:59:55 AM 19.7000 -68.2000 230° Southwest 390 449 20,700 -1,587 Descending San Juan Center
Sat 09:00:55 AM 19.6167 -68.2833 223° Southwest 380 437 19,300 -1,550 Descending San Juan Center
Sat 09:01:55 AM 19.5500 -68.3667 230° Southwest 370 426 17,600 -1,800 Descending San Juan Center
Sat 09:02:55 AM 19.4833 -68.4333 223° Southwest 360 414 15,700 -1,700 Descending San Juan Center
Sat 09:03:55 AM 19.4167 -68.5167 230° Southwest 350 403 14,200 -1,500 Descending San Juan Center
Sat 09:05:00 AM 19.3220 -68.5887 137° Southeast  Level FlightAware Approximate
Sat 09:12:00 AM 18.5674 -68.3634 155° Southeast  Level Estimated
Sat 09:13:00 AM 18.5674 -68.3634 155° Southeast  Level Estimated
Sat 09:14:00 AM 18.5674 -68.3634 155° Southeast  Level Estimated
Sat 09:15:00 AM 18.5674 -68.3634 155° Southeast  Level Estimated
Sat 09:16:00 AM 18.5674 -68.3634 155° Southeast  Level Estimated
Sat 09:17:00 AM 18.5674 -68.3634 155° Southeast  Level Estimated
Sat 09:18:00 AM 18.5674 -68.3634 155° Southeast  Level Estimated
Sat 09:19:00 AM 18.5674 -68.3634 155° Southeast  Level Estimated
Sat 09:20:00 AM 18.5674 -68.3634 155° Southeast  Level Estimated
Sat 09:21:00 AM 18.5674 -68.3634 155° Southeast  Level Estimated
Sat 09:22:00 AM 18.5674 -68.3634 155° Southeast  Level Estimated
Sat 09:23:00 AM 18.5674 -68.3634 155° Southeast  Level Estimated
Sat 09:24:00 AM 18.5674 -68.3634 155° Southeast  Level Estimated
Sat 09:25:00 AM 18.5674 -68.3634 155° Southeast  Level Estimated
Sat 09:26:00 AM 18.5674 -68.3634 155° Southeast  Level Estimated
Sat 09:27:00 AM 18.5674 -68.3634 155° Southeast  Level Estimated

Login

Don't have an account? Register now (free) for customized features, flight alerts, and more!